Time;durP1;ratioP1;P1;durP2;ratioP2;P2;SDS_P1;SDS_P2;PMS_P1;PMS_P2;Temp;Humidity;BMP_temperature;BMP_pressure;BME280_temperature;BME280_humidity;BME280_pressure;Samples;Min_cycle;Max_cycle;Signal;HPM_P1;HPM_P2
2022/08/13 00:00:36;;;;;;;;;;;;;;;19.40;96.29;100644.94;1633695;88;25688;-72
2022/08/13 00:03:07;;;;;;;12.43;11.12;;;;;;;19.40;96.49;100642.78;1597929;89;25580;-72
2022/08/13 00:05:33;;;;;;;12.90;11.60;;;;;;;19.37;96.38;100642.12;1596692;89;25613;-72
2022/08/13 00:08:00;;;;;;;13.32;11.90;;;;;;;19.33;96.10;100635.20;1597723;89;27359;-72
2022/08/13 00:10:28;;;;;;;13.72;12.40;;;;;;;19.32;96.21;100636.34;1597621;89;25449;-72
2022/08/13 00:12:57;;;;;;;14.40;12.70;;;;;;;19.32;96.49;100641.05;1597664;89;25506;-72
2022/08/13 00:15:29;;;;;;;;;;;;;;;19.31;96.60;100629.28;1600038;89;25641;-71
2022/08/13 00:18:02;;;;;;;12.93;11.43;;;;;;;19.32;96.81;100627.33;1586703;90;25510;-73
2022/08/13 00:20:33;;;;;;;15.63;11.22;;;;;;;19.29;96.70;100622.56;1586653;90;28207;-73
2022/08/13 00:23:00;;;;;;;12.43;11.15;;;;;;;19.26;96.50;100625.45;1586224;90;25685;-73
2022/08/13 00:25:28;;;;;;;14.25;12.40;;;;;;;19.25;96.47;100615.63;1586655;90;25684;-73
2022/08/13 00:27:57;;;;;;;14.35;11.70;;;;;;;19.25;96.39;100612.11;1586590;90;25722;-73
2022/08/13 00:30:33;;;;;;;12.25;10.95;;;;;;;19.23;96.50;100613.25;1630642;87;25474;-70
2022/08/13 00:33:07;;;;;;;15.83;12.05;;;;;;;19.22;96.49;100610.30;1626392;88;27418;-71
2022/08/13 00:35:39;;;;;;;13.40;11.25;;;;;;;19.22;96.69;100605.38;1626360;88;25448;-71
2022/08/13 00:38:07;;;;;;;13.78;12.25;;;;;;;19.21;96.94;100605.97;1626694;87;25445;-71
2022/08/13 00:40:34;;;;;;;19.07;11.05;;;;;;;19.21;96.73;100605.18;1626394;88;25706;-71
2022/08/13 00:43:04;;;;;;;12.88;11.57;;;;;;;19.21;96.84;100603.22;1626383;88;25429;-71
2022/08/13 00:45:32;;;;;;;15.38;12.20;;;;;;;19.20;97.02;100596.72;1626433;88;27348;-72
2022/08/13 00:50:44;;;;;;;12.85;11.57;;;;;;;19.19;97.17;100593.20;1626434;88;25410;-72
2022/08/13 00:53:20;;;;;;;11.38;10.28;;;;;;;19.16;97.12;100584.31;1626367;88;25662;-72
2022/08/13 00:55:48;;;;;;;11.93;10.58;;;;;;;19.15;96.94;100584.09;1624569;88;25418;-72
2022/08/13 00:58:20;;;;;;;11.18;10.00;;;;;;;19.13;97.08;100585.03;1626429;88;27068;-72
2022/08/13 01:00:50;;;;;;;11.10;9.90;;;;;;;19.13;97.19;100587.77;1626315;88;25619;-72
2022/08/13 01:03:18;;;;;;;12.00;10.43;;;;;;;19.11;97.29;100587.34;1626398;88;25599;-72
2022/08/13 01:05:48;;;;;;;10.58;9.58;;;;;;;19.12;97.44;100590.88;1626491;88;25690;-72
2022/08/13 01:08:18;;;;;;;14.15;10.58;;;;;;;19.12;97.48;100594.42;1626425;88;25422;-72
2022/08/13 01:10:49;;;;;;;15.18;10.75;;;;;;;19.11;97.35;100592.05;1626417;88;27347;-70
2022/08/13 01:13:19;;;;;;;11.88;10.40;;;;;;;19.10;97.39;100589.07;1626315;88;25611;-71
2022/08/13 01:15:46;;;;;;;11.35;10.18;;;;;;;19.10;97.51;100589.07;1626380;88;25506;-72
2022/08/13 01:18:13;;;;;;;11.53;10.30;;;;;;;19.10;97.75;100588.48;1626371;88;26372;-71
2022/08/13 01:20:59;;;;;;;11.50;10.30;;;;;;;19.11;97.66;100592.05;1626418;88;25425;-72
2022/08/13 01:23:28;;;;;;;13.80;10.98;;;;;;;19.10;97.63;100588.48;1626389;88;27334;-71
2022/08/13 01:25:59;;;;;;;13.40;11.33;;;;;;;19.10;97.61;100587.70;1626439;88;25650;-71
2022/08/13 01:28:29;;;;;;;11.83;10.70;;;;;;;19.08;97.64;100585.31;1626368;88;25473;-72
2022/08/13 01:31:05;;;;;;;14.40;12.00;;;;;;;19.07;97.79;100585.12;1627129;88;25623;-71
2022/08/13 01:33:34;;;;;;;12.88;10.98;;;;;;;19.07;97.62;100582.38;1631258;88;25603;-72
2022/08/13 01:35:59;;;;;;;13.10;11.78;;;;;;;19.06;97.80;100575.87;1631315;87;27558;-71
2022/08/13 01:38:26;;;;;;;15.68;11.40;;;;;;;19.04;97.66;100572.13;1631144;88;25400;-71
2022/08/13 01:40:52;;;;;;;15.08;11.25;;;;;;;19.03;97.82;100574.08;1631208;88;25566;-71
2022/08/13 01:43:20;;;;;;;13.83;11.33;;;;;;;19.03;97.81;100567.78;1631169;88;25693;-71
2022/08/13 01:45:50;;;;;;;13.62;12.13;;;;;;;19.02;97.79;100574.44;1631235;88;25588;-72
2022/08/13 01:51:23;;;;;;;15.35;12.30;;;;;;;19.01;97.96;100572.84;1631105;88;25430;-71
2022/08/13 01:53:54;;;;;;;13.13;11.88;;;;;;;19.01;97.95;100567.36;1631307;88;25574;-72
2022/08/13 01:56:22;;;;;;;13.93;12.45;;;;;;;19.00;97.92;100563.83;1631170;88;25723;-71
2022/08/13 01:58:51;;;;;;;12.87;11.53;;;;;;;18.98;97.65;100564.74;1631461;88;25622;-71
2022/08/13 02:01:18;;;;;;;13.68;12.47;;;;;;;18.96;97.91;100565.68;1631407;88;28071;-72
2022/08/13 02:03:48;;;;;;;15.30;13.20;;;;;;;18.97;98.15;100554.95;1631117;88;25609;-72
2022/08/13 02:06:14;;;;;;;;;;;;;;;18.97;98.01;100557.69;1633664;87;25430;-72
2022/08/13 02:08:40;;;;;;;13.38;11.97;;;;;;;18.97;98.19;100563.17;1631204;88;25708;-72
2022/08/13 02:11:07;;;;;;;14.53;12.28;;;;;;;18.95;98.15;100564.67;1605416;88;25550;-72
2022/08/13 02:13:34;;;;;;;14.28;12.78;;;;;;;18.93;97.72;100566.98;1631170;88;27454;-72
2022/08/13 02:16:00;;;;;;;15.58;12.30;;;;;;;18.90;97.59;100563.02;1631132;88;25680;-72
2022/08/13 02:18:26;;;;;;;13.75;12.45;;;;;;;18.87;97.60;100564.33;1631208;88;25587;-72
2022/08/13 02:20:57;;;;;;;12.75;11.45;;;;;;;18.85;97.76;100572.31;1631160;88;25655;-72
2022/08/13 02:23:30;;;;;;;14.38;12.98;;;;;;;18.84;97.74;100569.93;1631241;88;25630;-72
2022/08/13 02:25:57;;;;;;;14.00;12.65;;;;;;;18.82;97.92;100573.03;1631192;88;27529;-72
2022/08/13 02:28:23;;;;;;;14.20;12.78;;;;;;;18.82;98.05;100570.84;1605295;88;25667;-72
2022/08/13 02:30:53;;;;;;;13.20;11.80;;;;;;;18.81;98.06;100565.94;1631144;88;25424;-72
2022/08/13 02:33:20;;;;;;;15.32;12.58;;;;;;;18.82;98.23;100557.14;1631205;88;25855;-72
2022/08/13 02:35:47;;;;;;;13.95;12.53;;;;;;;18.81;98.17;100566.50;1631224;88;25674;-72
2022/08/13 02:38:13;;;;;;;15.20;12.63;;;;;;;18.79;98.01;100560.59;1631193;88;27403;-72
2022/08/13 02:43:31;;;;;;;13.68;12.28;;;;;;;18.75;97.57;100559.73;1631203;88;25587;-72
2022/08/13 02:46:00;;;;;;;13.60;12.18;;;;;;;18.71;97.72;100550.62;1631178;88;26331;-72
2022/08/13 02:48:29;;;;;;;13.88;12.40;;;;;;;18.70;97.86;100548.47;1631214;88;25567;-72
2022/08/13 02:50:57;;;;;;;13.70;12.30;;;;;;;18.69;97.93;100537.27;1631296;88;27342;-72
2022/08/13 02:53:25;;;;;;;13.05;11.80;;;;;;;18.67;97.88;100542.33;1631132;88;25658;-72
2022/08/13 02:55:52;;;;;;;13.50;12.30;;;;;;;18.66;97.95;100543.47;1631200;88;25452;-72
2022/08/13 02:58:18;;;;;;;13.78;12.13;;;;;;;18.64;97.96;100545.22;1631139;88;25622;-72
2022/08/13 03:00:49;;;;;;;14.07;11.33;;;;;;;18.63;97.91;100538.14;1631233;88;25425;-72
2022/08/13 03:03:16;;;;;;;13.40;12.07;;;;;;;18.60;97.73;100536.11;1631219;87;28182;-72
2022/08/13 03:05:43;;;;;;;12.65;11.53;;;;;;;18.58;97.54;100538.42;1631174;88;25652;-72
2022/08/13 03:08:09;;;;;;;12.55;11.25;;;;;;;18.56;97.45;100537.17;1631287;88;25649;-72
2022/08/13 03:10:36;;;;;;;14.35;12.95;;;;;;;18.53;97.44;100533.80;1631271;88;25729;-72
2022/08/13 03:13:15;;;;;;;13.35;11.88;;;;;;;18.51;97.43;100522.39;1631365;88;25656;-72
2022/08/13 03:15:44;;;;;;;;;;;;;;;18.48;97.26;100528.02;1633607;87;27428;-70
2022/08/13 03:18:11;;;;;;;13.77;12.43;;;;;;;18.46;97.53;100522.11;1631467;88;25568;-70
2022/08/13 03:20:40;;;;;;;15.25;12.35;;;;;;;18.41;97.33;100525.13;1631278;88;25613;-71
2022/08/13 03:23:08;;;;;;;13.50;12.27;;;;;;;18.38;97.21;100524.46;1631451;88;25726;-71
2022/08/13 03:25:35;;;;;;;14.33;12.45;;;;;;;18.35;97.33;100523.22;1631336;88;25524;-71
2022/08/13 03:28:04;;;;;;;14.73;13.05;;;;;;;18.34;97.60;100523.56;1631419;88;27956;-72
2022/08/13 03:30:34;;;;;;;15.25;12.03;;;;;;;18.32;97.57;100526.69;1631307;88;25407;-71
2022/08/13 03:33:07;;;;;;;13.78;12.30;;;;;;;18.31;97.67;100527.83;1627499;88;25526;-71
2022/08/13 03:35:36;;;;;;;14.58;12.60;;;;;;;18.29;97.95;100524.07;1625865;88;25599;-71
2022/08/13 03:38:05;;;;;;;14.43;12.28;;;;;;;18.28;98.14;100527.95;1626579;88;25632;-71
2022/08/13 03:41:15;;;;;;;14.60;13.03;;;;;;;18.29;98.30;100524.66;1626441;88;28064;-71
2022/08/13 03:43:09;;;;;;;14.03;12.65;;;;;;;18.31;98.50;100520.20;1623736;88;25802;-70
2022/08/13 03:45:36;;;;;;;15.48;12.33;;;;;;;18.31;98.64;100514.14;1626445;88;25418;-71
2022/08/13 03:48:03;;;;;;;14.85;13.00;;;;;;;18.33;99.03;100513.20;1626499;88;25864;-71
2022/08/13 03:50:29;;;;;;;14.65;12.05;;;;;;;18.35;99.13;100512.84;1626498;88;25416;-71
2022/08/13 03:53:02;;;;;;;16.97;13.15;;;;;;;18.36;99.19;100515.81;1626496;88;28007;-71
2022/08/13 03:55:30;;;;;;;16.00;13.10;;;;;;;18.37;99.47;100518.20;1626375;88;25430;-71
2022/08/13 03:57:57;;;;;;;13.93;12.20;;;;;;;18.39;99.57;100515.89;1626445;88;25532;-71
2022/08/13 04:00:28;;;;;;;14.80;13.30;;;;;;;18.39;99.25;100515.89;1626411;88;25604;-71
2022/08/13 04:02:52;;;;;;;20.43;13.22;;;;;;;18.39;99.45;100516.45;1626495;88;25403;-71
2022/08/13 04:05:19;;;;;;;14.15;12.75;;;;;;;18.42;99.49;100523.41;1626441;88;27284;-71
2022/08/13 04:07:45;;;;;;;15.00;13.48;;;;;;;18.42;99.81;100519.30;1626320;88;25614;-71
2022/08/13 04:10:13;;;;;;;15.78;13.08;;;;;;;18.44;99.88;100522.47;1626455;88;25473;-70
2022/08/13 04:12:39;;;;;;;13.78;12.37;;;;;;;18.47;100.00;100531.90;1626393;88;26265;-70
2022/08/13 04:15:07;;;;;;;14.07;12.80;;;;;;;18.50;100.00;100527.66;1626460;88;25492;-71
2022/08/13 04:17:37;;;;;;;14.60;12.93;;;;;;;18.51;100.00;100531.97;1626393;88;27377;-71
2022/08/13 04:20:06;;;;;;;15.10;12.85;;;;;;;18.53;100.00;100533.80;1626374;88;25564;-71
2022/08/13 04:22:34;;;;;;;14.45;12.70;;;;;;;18.53;100.00;100535.95;1626545;88;25607;-71
2022/08/13 04:25:00;;;;;;;15.72;12.82;;;;;;;18.56;100.00;100538.55;1626381;88;26236;-71
2022/08/13 04:27:26;;;;;;;14.35;12.90;;;;;;;18.58;100.00;100543.11;1626414;88;25457;-71
2022/08/13 04:29:55;;;;;;;15.03;13.50;;;;;;;18.60;100.00;100545.70;1626393;88;27431;-71
2022/08/13 04:32:21;;;;;;;14.77;13.27;;;;;;;18.62;100.00;100544.76;1628272;88;25409;-71
2022/08/13 04:34:47;;;;;;;14.85;13.43;;;;;;;18.64;100.00;100550.70;1631246;88;25425;-71
2022/08/13 04:37:13;;;;;;;13.90;12.60;;;;;;;18.67;100.00;100547.22;1631213;88;26386;-71
2022/08/13 04:39:39;;;;;;;14.50;13.00;;;;;;;18.67;100.00;100548.59;1631298;87;25517;-71
2022/08/13 04:42:07;;;;;;;14.73;13.22;;;;;;;18.70;100.00;100548.47;1631181;88;27345;-71
2022/08/13 04:44:35;;;;;;;14.03;12.73;;;;;;;18.72;100.00;100548.11;1631172;88;25703;-71
2022/08/13 04:47:04;;;;;;;14.98;12.65;;;;;;;18.74;100.00;100541.11;1631260;88;25590;-72
2022/08/13 04:49:32;;;;;;;13.68;12.47;;;;;;;18.75;100.00;100539.97;1631315;88;26408;-72
2022/08/13 04:51:58;;;;;;;14.10;12.70;;;;;;;18.78;100.00;100534.33;1631281;88;25429;-72
2022/08/13 04:54:24;;;;;;;14.38;12.98;;;;;;;18.80;100.00;100531.46;1631281;88;27340;-72
2022/08/13 04:56:50;;;;;;;14.85;13.32;;;;;;;18.82;100.00;100522.33;1631174;88;25599;-72
2022/08/13 04:59:16;;;;;;;14.38;12.98;;;;;;;18.86;100.00;100530.62;1631253;88;25650;-72
2022/08/13 05:01:42;;;;;;;15.03;12.82;;;;;;;18.90;100.00;100533.44;1631218;88;25671;-72
2022/08/13 05:04:08;;;;;;;17.05;13.10;;;;;;;18.94;100.00;100531.58;1631248;88;25479;-72
2022/08/13 05:06:35;;;;;;;14.30;12.93;;;;;;;18.99;100.00;100533.45;1631279;88;27349;-72
2022/08/13 05:09:01;;;;;;;14.93;13.43;;;;;;;19.05;100.00;100536.69;1631132;88;25607;-72
2022/08/13 05:11:27;;;;;;;15.75;13.18;;;;;;;19.10;100.00;100538.36;1631307;88;25475;-72
2022/08/13 05:13:53;;;;;;;18.62;13.62;;;;;;;19.14;100.00;100535.13;1631214;88;25642;-72
2022/08/13 05:16:20;;;;;;;16.30;12.93;;;;;;;19.16;100.00;100538.30;1631235;88;25624;-72
2022/08/13 05:18:54;;;;;;;14.38;12.25;;;;;;;19.18;100.00;100538.13;1631221;88;28026;-72
2022/08/13 05:21:23;;;;;;;14.30;12.07;;;;;;;19.20;100.00;100532.29;1631216;88;25647;-72
2022/08/13 05:23:54;;;;;;;;;;;;;;;19.23;100.00;100529.61;1633518;87;25641;-72
2022/08/13 05:26:24;;;;;;;16.17;12.65;;;;;;;19.28;100.00;100531.86;1631183;88;25692;-72
2022/08/13 05:28:51;;;;;;;15.23;11.53;;;;;;;19.30;100.00;100536.41;1630730;88;25562;-72
2022/08/13 05:31:18;;;;;;;13.85;12.30;;;;;;;19.33;100.00;100539.21;1631254;88;27399;-72
2022/08/13 05:33:45;;;;;;;14.00;11.57;;;;;;;19.38;100.00;100538.91;1627348;88;25543;-72
2022/08/13 05:36:13;;;;;;;13.90;12.05;;;;;;;19.41;100.00;100532.71;1626415;88;25562;-72
2022/08/13 05:38:40;;;;;;;16.27;11.60;;;;;;;19.46;100.00;100534.38;1626326;88;26256;-72
2022/08/13 05:41:10;;;;;;;15.15;13.28;;;;;;;19.47;100.00;100532.41;1626416;88;25576;-72
2022/08/13 05:43:37;;;;;;;15.78;11.93;;;;;;;19.49;100.00;100525.98;1626356;88;27310;-72
2022/08/13 05:46:08;;;;;;;19.00;16.90;;;;;;;19.56;100.00;100517.88;1626332;88;25575;-72
2022/08/13 05:48:38;;;;;;;14.20;12.80;;;;;;;19.64;100.00;100525.08;1626379;88;25528;-72
2022/08/13 05:51:10;;;;;;;13.25;11.83;;;;;;;19.73;100.00;100516.61;1626467;88;25687;-72
2022/08/13 05:53:38;;;;;;;13.28;12.07;;;;;;;19.77;100.00;100520.25;1626416;88;25615;-72
2022/08/13 05:56:05;;;;;;;13.08;11.03;;;;;;;19.80;100.00;100516.75;1626386;88;28049;-72
2022/08/13 05:58:34;;;;;;;17.12;12.05;;;;;;;19.81;100.00;100525.80;1626302;88;25511;-72
2022/08/13 06:03:46;;;;;;;14.60;12.28;;;;;;;19.83;100.00;100535.83;1626378;88;26351;-72
2022/08/13 06:06:16;;;;;;;15.10;13.40;;;;;;;19.83;100.00;100545.43;1626389;88;25581;-73
2022/08/13 06:08:43;;;;;;;15.35;11.53;;;;;;;19.78;100.00;100569.84;1626378;88;27519;-73
2022/08/13 06:11:17;;;;;;;15.18;12.10;;;;;;;19.69;99.10;100563.78;1626301;88;25583;-73
2022/08/13 06:13:48;;;;;;;12.13;11.03;;;;;;;19.63;99.12;100586.62;1626404;88;25302;-73
2022/08/13 06:16:18;;;;;;;13.58;11.83;;;;;;;19.57;98.91;100599.03;1626358;88;25668;-73
2022/08/13 06:18:46;;;;;;;;;;;;;;;19.51;99.08;100607.33;1610847;88;25661;-72
2022/08/13 06:21:15;;;;;;;15.53;10.72;;;;;;;19.45;98.79;100636.23;1591068;90;27407;-72
2022/08/13 06:23:45;;;;;;;11.83;10.63;;;;;;;19.35;98.36;100665.02;1590804;90;25508;-71
2022/08/13 06:26:15;;;;;;;17.55;12.05;;;;;;;19.25;98.57;100691.05;1590798;90;25680;-71
2022/08/13 06:33:02;;;;;;;14.98;11.43;;;;;;;19.09;99.01;100681.50;1591780;89;25659;-66
2022/08/13 06:35:48;;;;;;;15.00;10.43;;;;;;;18.89;99.08;100685.34;1605793;89;27499;-67
2022/08/13 06:38:18;;;;;;;14.95;11.12;;;;;;;18.76;99.61;100675.02;1605828;89;25610;-67
2022/08/13 06:40:45;;;;;;;;;;;;;;;18.62;99.93;100671.36;1608425;89;25533;-66
2022/08/13 06:43:18;;;;;;;16.37;11.03;;;;;;;18.53;100.00;100681.71;1597032;89;25616;-66
2022/08/13 06:45:43;;;;;;;14.47;12.03;;;;;;;18.44;100.00;100658.61;1597025;89;25528;-68
2022/08/13 06:48:09;;;;;;;12.30;11.08;;;;;;;18.41;100.00;100661.47;1637389;87;27243;-68
2022/08/13 06:50:37;;;;;;;15.08;11.80;;;;;;;18.39;100.00;100668.43;1637309;87;25729;-68
2022/08/13 06:53:09;;;;;;;14.10;10.95;;;;;;;18.35;100.00;100650.55;1637350;87;25646;-68
2022/08/13 06:55:37;;;;;;;14.07;11.43;;;;;;;18.34;100.00;100655.81;1637343;87;25685;-68
2022/08/13 06:58:08;;;;;;;13.48;12.15;;;;;;;18.32;100.00;100662.23;1637495;87;25491;-68
2022/08/13 07:00:38;;;;;;;13.58;12.20;;;;;;;18.31;100.00;100672.16;1637386;87;27230;-68
2022/08/13 07:03:06;;;;;;;14.87;11.80;;;;;;;18.29;100.00;100672.51;1637299;87;25649;-68
2022/08/13 07:05:40;;;;;;;13.43;11.95;;;;;;;18.28;100.00;100662.69;1637378;87;25530;-68
2022/08/13 07:08:11;;;;;;;14.73;13.22;;;;;;;18.31;100.00;100687.22;1637377;87;25628;-68
2022/08/13 07:10:43;;;;;;;15.68;12.68;;;;;;;18.33;100.00;100686.29;1637492;87;25441;-68
2022/08/13 07:13:10;;;;;;;18.82;14.58;;;;;;;18.36;100.00;100689.70;1637486;87;27411;-68
2022/08/13 07:15:36;;;;;;;16.52;14.85;;;;;;;18.39;100.00;100680.75;1637283;87;25601;-68
2022/08/13 07:18:06;;;;;;;15.35;13.95;;;;;;;18.44;100.00;100666.83;1637381;87;25451;-68
2022/08/13 07:20:33;;;;;;;18.10;13.48;;;;;;;18.47;100.00;100647.73;1637550;87;25811;-68
2022/08/13 07:22:59;;;;;;;15.95;13.83;;;;;;;18.51;100.00;100646.45;1637368;87;25590;-68
2022/08/13 07:25:32;;;;;;;18.42;14.47;;;;;;;18.55;100.00;100624.63;1637342;87;27456;-68
2022/08/13 07:27:59;;;;;;;20.55;15.43;;;;;;;18.61;100.00;100603.45;1637379;87;25653;-68
2022/08/13 07:30:26;;;;;;;19.15;15.70;;;;;;;18.68;100.00;100594.61;1637508;87;25638;-66
2022/08/13 07:32:53;;;;;;;19.30;15.23;;;;;;;18.74;100.00;100583.58;1637323;87;25693;-67
2022/08/13 07:35:19;;;;;;;18.42;15.45;;;;;;;18.80;100.00;100572.56;1628260;87;25453;-66
2022/08/13 07:37:52;;;;;;;21.85;16.55;;;;;;;18.88;100.00;100564.52;1626427;88;27404;-66
2022/08/13 07:40:20;;;;;;;20.55;15.60;;;;;;;18.93;100.00;100577.36;1626405;88;25583;-66
2022/08/13 07:42:49;;;;;;;21.10;15.78;;;;;;;19.01;100.00;100587.33;1626441;88;25485;-66
2022/08/13 07:45:27;;;;;;;17.73;15.05;;;;;;;19.08;100.00;100583.16;1626555;88;25812;-66
2022/08/13 07:47:52;;;;;;;18.65;15.40;;;;;;;19.14;100.00;100582.52;1625878;88;25587;-68
2022/08/13 07:50:20;;;;;;;20.63;15.30;;;;;;;19.21;100.00;100570.31;1626686;88;27323;-69
2022/08/13 07:52:55;;;;;;;18.80;16.07;;;;;;;19.26;100.00;100573.91;1626365;88;25781;-67
2022/08/13 07:55:19;;;;;;;18.75;15.50;;;;;;;19.35;100.00;100574.51;1626658;88;25584;-67
2022/08/13 07:57:47;;;;;;;15.78;13.62;;;;;;;19.40;100.00;100557.75;1626416;88;25579;-68
2022/08/13 08:00:21;;;;;;;17.15;13.90;;;;;;;19.43;100.00;100559.78;1626462;88;25605;-68
2022/08/13 08:02:44;;;;;;;16.48;13.38;;;;;;;19.45;100.00;100551.19;1626287;88;29181;-68
2022/08/13 08:05:12;;;;;;;15.70;14.18;;;;;;;19.51;100.00;100540.94;1626336;88;25456;-68
2022/08/13 08:07:41;;;;;;;15.95;14.35;;;;;;;19.58;100.00;100532.83;1626715;88;25414;-68
2022/08/13 08:10:10;;;;;;;14.07;12.60;;;;;;;19.68;100.00;100525.14;1626493;88;25704;-68
2022/08/13 08:12:37;;;;;;;13.70;12.23;;;;;;;19.69;100.00;100512.43;1626711;88;25676;-68
2022/08/13 08:15:07;;;;;;;13.43;12.20;;;;;;;19.72;100.00;100521.31;1626428;88;27510;-69
2022/08/13 08:17:34;;;;;;;16.75;14.45;;;;;;;19.81;100.00;100532.07;1626318;88;25573;-68
2022/08/13 08:20:02;;;;;;;15.80;14.05;;;;;;;19.93;100.00;100532.47;1626392;88;25412;-68
2022/08/13 08:22:30;;;;;;;16.25;12.40;;;;;;;20.03;100.00;100529.10;1626377;88;25703;-68
2022/08/13 08:24:58;;;;;;;15.00;13.43;;;;;;;20.11;100.00;100523.94;1626427;88;25609;-68
2022/08/13 08:27:25;;;;;;;15.08;13.50;;;;;;;20.22;100.00;100524.10;1626445;88;27541;-68
2022/08/13 08:29:52;;;;;;;17.67;15.88;;;;;;;20.38;100.00;100510.23;1626358;88;25670;-68
2022/08/13 08:32:20;;;;;;;14.10;12.47;;;;;;;20.51;100.00;100497.83;1626447;88;25571;-68
2022/08/13 08:34:50;;;;;;;13.72;12.53;;;;;;;20.64;100.00;100483.92;1628584;88;25687;-68
2022/08/13 08:43:00;;;;;;;14.65;12.98;;;;;;;21.15;100.00;100466.06;1631349;88;25611;-68
2022/08/13 08:45:27;;;;;;;13.53;12.13;;;;;;;21.34;100.00;100464.47;1631332;88;25578;-68
2022/08/13 08:47:53;;;;;;;13.93;12.58;;;;;;;21.48;100.00;100453.43;1631248;88;26424;-69
2022/08/13 08:50:25;;;;;;;14.95;13.15;;;;;;;21.83;100.00;100452.94;1631321;88;25432;-69
2022/08/13 08:55:43;;;;;;;12.95;11.70;;;;;;;22.19;100.00;100445.70;1631350;88;25483;-69
2022/08/13 08:58:12;;;;;;;14.25;12.78;;;;;;;22.42;100.00;100438.37;1631252;88;25418;-70
2022/08/13 09:00:40;;;;;;;12.70;11.50;;;;;;;22.81;100.00;100442.66;1631345;88;25731;-70
2022/08/13 09:03:10;;;;;;;13.00;11.70;;;;;;;23.04;100.00;100441.56;1631606;88;25687;-69
2022/08/13 09:05:37;;;;;;;12.93;11.68;;;;;;;23.05;100.00;100432.87;1631292;88;27403;-69
2022/08/13 09:08:10;;;;;;;16.07;12.93;;;;;;;23.14;100.00;100429.78;1631196;88;25568;-70
2022/08/13 09:10:36;;;;;;;14.78;12.58;;;;;;;23.57;100.00;100429.81;1631004;88;25635;-70
2022/08/13 09:13:03;;;;;;;14.77;13.37;;;;;;;23.83;100.00;100436.14;1631474;88;26386;-70
2022/08/13 09:15:35;;;;;;;12.75;11.43;;;;;;;23.97;100.00;100433.94;1631283;88;25512;-70
2022/08/13 09:18:04;;;;;;;14.03;11.08;;;;;;;24.08;100.00;100429.20;1631291;88;27343;-71
2022/08/13 09:20:33;;;;;;;12.82;11.53;;;;;;;24.03;100.00;100447.56;1631172;88;25672;-71
2022/08/13 09:23:14;;;;;;;15.40;12.65;;;;;;;24.11;100.00;100447.75;1631409;88;25460;-71
2022/08/13 09:25:51;;;;;;;13.78;12.47;;;;;;;24.32;100.00;100445.52;1631388;88;25642;-71
2022/08/13 09:28:23;;;;;;;13.28;11.90;;;;;;;24.50;100.00;100453.77;1632212;87;25226;-71
2022/08/13 09:30:52;;;;;;;11.85;10.85;;;;;;;24.70;100.00;100454.69;1632598;88;27407;-72
2022/08/13 09:33:23;;;;;;;11.53;10.48;;;;;;;24.76;100.00;100449.72;1632721;88;25238;-71
2022/08/13 09:35:52;;;;;;;12.37;10.45;;;;;;;24.81;100.00;100458.20;1628501;88;25447;-71
2022/08/13 09:38:21;;;;;;;11.00;9.98;;;;;;;24.76;100.00;100458.63;1627191;88;25717;-72
2022/08/13 09:40:52;;;;;;;11.80;10.08;;;;;;;24.74;100.00;100464.55;1627208;88;25576;-73
2022/08/13 09:43:23;;;;;;;11.90;9.85;;;;;;;24.68;100.00;100474.45;1625849;88;27679;-73
2022/08/13 09:45:49;;;;;;;12.15;10.95;;;;;;;24.62;100.00;100473.30;1608197;88;25465;-72
2022/08/13 09:48:15;;;;;;;13.85;10.08;;;;;;;24.56;100.00;100472.13;1626470;88;25589;-73
2022/08/13 09:50:42;;;;;;;10.32;9.23;;;;;;;24.51;100.00;100476.05;1626453;88;25632;-73
2022/08/13 09:53:09;;;;;;;9.38;8.48;;;;;;;24.49;100.00;100473.52;1626420;88;25469;-72
2022/08/13 09:55:37;;;;;;;9.93;8.93;;;;;;;24.44;100.00;100476.09;1608059;88;27394;-73
2022/08/13 09:58:04;;;;;;;10.10;9.20;;;;;;;24.45;100.00;100492.06;1626390;88;25593;-73
2022/08/13 10:00:33;;;;;;;10.68;9.68;;;;;;;24.43;100.00;100497.99;1626420;88;25414;-73
2022/08/13 10:03:04;;;;;;;10.38;9.40;;;;;;;24.46;100.00;100493.66;1626620;88;25724;-73
2022/08/13 10:05:34;;;;;;;11.73;9.05;;;;;;;24.52;100.00;100497.00;1626406;88;25409;-73
2022/08/13 10:08:05;;;;;;;9.93;8.95;;;;;;;24.57;100.00;100492.47;1626402;88;27434;-73
2022/08/13 10:10:33;;;;;;;10.80;9.83;;;;;;;24.63;100.00;100488.69;1624694;88;25516;-73
2022/08/13 10:13:00;;;;;;;9.25;8.30;;;;;;;24.78;100.00;100490.81;1626389;88;25595;-73
2022/08/13 10:15:28;;;;;;;9.50;8.33;;;;;;;24.82;100.00;100492.95;1626469;88;25674;-74
2022/08/13 10:17:58;;;;;;;10.45;8.60;;;;;;;24.90;100.00;100490.95;1626517;88;25614;-73
2022/08/13 10:20:29;;;;;;;11.00;10.00;;;;;;;25.02;100.00;100486.34;1626500;88;28112;-74
2022/08/13 10:22:58;;;;;;;10.18;9.25;;;;;;;25.29;100.00;100489.38;1626493;88;25722;-74
2022/08/13 10:25:27;;;;;;;10.43;9.50;;;;;;;25.61;100.00;100494.49;1626105;88;25574;-74
2022/08/13 10:27:55;;;;;;;10.23;9.40;;;;;;;25.86;100.00;100488.75;1626636;88;32740;-74
2022/08/13 10:30:24;;;;;;;9.20;8.28;;;;;;;26.11;100.00;100487.17;1626565;88;25492;-74
2022/08/13 10:32:55;;;;;;;7.85;7.08;;;;;;;26.30;100.00;100488.56;1626608;88;27339;-74
2022/08/13 10:35:25;;;;;;;7.55;6.85;;;;;;;26.40;100.00;100487.66;1628563;88;25558;-75
2022/08/13 10:37:54;;;;;;;9.70;8.05;;;;;;;26.42;96.81;100486.64;1631516;88;25481;-74
2022/08/13 10:40:22;;;;;;;11.70;10.55;;;;;;;26.47;97.47;100480.64;1632040;88;25666;-74
2022/08/13 10:42:49;;;;;;;8.53;7.25;;;;;;;26.93;100.00;100479.13;1607006;88;25638;-74
2022/08/13 10:45:17;;;;;;;8.88;7.97;;;;;;;27.36;100.00;100475.77;1632509;87;27512;-73
2022/08/13 10:47:50;;;;;;;8.70;7.87;;;;;;;27.88;100.00;100467.59;1631385;88;25616;-73
2022/08/13 10:50:21;;;;;;;8.75;6.55;;;;;;;28.53;99.32;100458.84;1631633;88;25639;-74
2022/08/13 10:52:48;;;;;;;9.40;6.92;;;;;;;29.10;96.51;100453.27;1631232;88;25695;-72
2022/08/13 10:55:16;;;;;;;6.72;6.22;;;;;;;29.58;92.68;100455.95;1631908;88;25635;-72
2022/08/13 10:57:45;;;;;;;7.28;6.60;;;;;;;29.91;87.01;100446.95;1631459;88;27332;-72
2022/08/13 11:00:16;;;;;;;6.67;6.05;;;;;;;30.18;82.10;100448.00;1631234;88;25464;-72
2022/08/13 11:02:50;;;;;;;6.28;5.78;;;;;;;30.33;80.03;100438.63;1631366;88;25593;-72
2022/08/13 11:05:13;;;;;;;8.35;6.28;;;;;;;30.43;78.58;100440.20;1630840;88;26182;-72
2022/08/13 11:07:39;;;;;;;6.33;5.83;;;;;;;30.50;73.81;100447.75;1631433;88;25475;-71
2022/08/13 11:10:08;;;;;;;6.55;5.83;;;;;;;30.50;74.43;100437.20;1631326;88;27345;-72
2022/08/13 11:12:42;;;;;;;6.65;6.00;;;;;;;30.64;74.33;100436.77;1631442;88;25758;-72
2022/08/13 11:15:09;;;;;;;6.78;5.60;;;;;;;30.82;72.68;100439.04;1631065;88;25670;-72
2022/08/13 11:17:40;;;;;;;;;;;;;;;30.72;68.96;100436.73;1633952;88;25622;-72
2022/08/13 11:20:19;;;;;;;7.90;5.70;;;;;;;30.47;68.07;100441.66;1631601;88;25641;-73
2022/08/13 11:22:47;;;;;;;7.97;6.03;;;;;;;30.23;68.18;100439.72;1631507;87;27248;-72
2022/08/13 11:25:13;;;;;;;6.50;5.90;;;;;;;30.01;67.75;100443.70;1631222;88;25479;-71
2022/08/13 11:27:40;;;;;;;7.12;6.40;;;;;;;29.88;67.50;100443.66;1631312;88;25640;-71
2022/08/13 11:30:08;;;;;;;6.83;5.83;;;;;;;29.75;67.77;100437.20;1631318;88;25664;-71
2022/08/13 11:32:35;;;;;;;6.28;5.78;;;;;;;29.68;67.71;100441.55;1631450;88;25684;-71
2022/08/13 11:35:06;;;;;;;7.17;6.45;;;;;;;29.49;66.84;100432.88;1630513;88;27910;-71
2022/08/13 11:37:35;;;;;;;6.25;5.75;;;;;;;29.27;67.13;100434.02;1626489;88;25643;-72
2022/08/13 11:40:03;;;;;;;6.55;5.95;;;;;;;29.03;66.61;100433.33;1627937;87;25662;-71